Flight Track Log - Related Links

Times and Time Zones

All times are in EST time to prevent confusion due to time zone crossing. See the N75AW flight status page for this flight to view local times or setup timezone preferences in your user account.

Time Position Orientation Groundspeed Altitude Reporting Facility
EST Latitude Longitude Course Direction KTS MPH feet Rate Location/Type
Mon 03:25:00 PM 25.5351 -77.0856 270° West  Level Estimated
Mon 03:27:39 PM 25.5050 -77.2708 270° West 272 313 13,200  Level Miami Center
Mon 03:28:39 PM 25.5047 -77.3400 270° West 257 296 14,800 1,550 Climbing Miami Center
Mon 03:29:39 PM 25.5044 -77.4000 270° West 223 257 16,300 1,350 Climbing Miami Center
Mon 03:30:39 PM 25.5044 -77.4619 270° West 207 238 17,500 1,250 Climbing Miami Center
Mon 03:31:39 PM 25.5061 -77.5333 271° West 207 238 18,800 1,200 Climbing Miami Center
Mon 03:32:39 PM 25.5078 -77.5933 272° West 207 238 19,900 1,150 Climbing Miami Center
Mon 03:33:39 PM 25.5075 -77.6578 270° West 207 238 21,100 1,050 Climbing Miami Center
Mon 03:34:39 PM 25.5072 -77.7178 270° West 202 232 22,000 500 Climbing Miami Center
Mon 03:35:39 PM 25.5089 -77.7844 272° West 202 232 22,100 50 Climbing Miami Center
Mon 03:36:39 PM 25.5083 -77.8603 270° West 226 260 22,100  Level Miami Center
Mon 03:37:39 PM 25.5100 -77.9364 271° West 243 280 22,100  Level Miami Center
Mon 03:38:39 PM 25.5114 -78.0147 271° West 248 285 22,100  Level Miami Center
Mon 03:39:39 PM 25.5108 -78.0931 270° West 253 291 22,100  Level Miami Center
Mon 03:40:39 PM 25.5122 -78.1714 271° West 253 291 22,100  Level Miami Center
Mon 03:41:39 PM 25.5117 -78.2497 270° West 253 291 22,100  Level Miami Center
Mon 03:42:39 PM 25.5108 -78.3303 269° West 253 291 22,100  Level Miami Center
Mon 03:43:39 PM 25.5142 -78.4086 273° West 258 297 22,100  Level Miami Center
Mon 03:44:39 PM 25.5133 -78.4867 269° West 258 297 22,100  Level Miami Center
Mon 03:45:39 PM 25.5167 -78.5650 273° West 252 290 22,100  Level Miami Center
Mon 03:46:39 PM 25.5114 -78.6456 266° West 252 290 22,100  Level Miami Center
Mon 03:47:39 PM 25.5147 -78.7217 273° West 252 290 22,100  Level Miami Center
Mon 03:48:39 PM 25.5158 -78.8022 271° West 252 290 22,100  Level Miami Center
Mon 03:49:39 PM 25.5167 -78.8806 271° West 252 290 22,100  Level Miami Center
Mon 03:50:39 PM 25.5136 -78.9564 267° West 252 290 22,100  Level Miami Center
Mon 03:51:39 PM 25.5144 -79.0372 271° West 252 290 22,100  Level Miami Center
Mon 03:52:39 PM 25.5156 -79.1178 271° West 252 290 22,100  Level Miami Center
Mon 03:53:39 PM 25.5142 -79.1958 269° West 257 296 22,100  Level Miami Center
Mon 03:54:39 PM 25.5150 -79.2742 271° West 257 296 22,100  Level Miami Center
Mon 03:55:39 PM 25.5158 -79.3525 271° West 252 290 22,100  Level Miami Center
Mon 03:56:39 PM 25.5144 -79.4308 269° West 252 290 22,100  Level Miami Center
Mon 03:57:39 PM 25.5153 -79.5092 271° West 252 290 22,100  Level Miami Center
Mon 03:58:39 PM 25.5139 -79.5872 269° West 252 290 22,100  Level Miami Center
Mon 03:59:39 PM 25.5144 -79.6656 270° West 252 290 22,100  Level Miami Center
Mon 04:00:39 PM 25.5128 -79.7461 269° West 252 290 22,100  Level Miami Center
Mon 04:01:39 PM 25.5133 -79.8244 270° West 252 290 22,100  Level Miami Center
Mon 04:02:39 PM 25.5117 -79.9028 269° West 252 290 22,100  Level Miami Center
Mon 04:03:39 PM 25.5100 -79.9808 269° West 252 290 22,100  Level Miami Center
Mon 04:04:39 PM 25.5106 -80.0614 270° West 252 290 22,100  Level Miami Center
Mon 04:05:39 PM 25.5089 -80.1397 269° West 252 290 22,100  Level Miami Center
Mon 04:06:39 PM 25.5092 -80.2181 270° West 252 290 22,100  Level Miami Center
Mon 04:07:39 PM 25.5072 -80.2961 268° West 252 290 22,100 -400 Level Miami Center
Mon 04:08:39 PM 25.5075 -80.3792 270° West 257 296 21,300 -900 Descending Miami Center
Mon 04:09:39 PM 25.5072 -80.4689 270° West 276 318 20,300 -850 Descending Miami Center
Mon 04:10:39 PM 25.5056 -80.5447 269° West 286 329 19,600 -850 Descending Miami Center
Mon 04:11:39 PM 25.5050 -80.6414 270° West 291 335 18,600 -900 Descending Miami Center
Mon 04:12:39 PM 25.5033 -80.7103 268° West 291 335 17,800 -1,050 Descending Miami Center
Mon 04:13:39 PM 25.5050 -80.8069 271° West 291 335 16,500 -1,300 Descending Miami Center
Mon 04:14:39 PM 25.5047 -80.8922 270° West 291 335 15,200 -1,200 Descending Miami Center
Mon 04:15:39 PM 25.5022 -80.9772 268° West 291 335 14,100 -1,050 Descending Miami Center
Mon 04:16:39 PM 25.5019 -81.0600 270° West 285 328 13,100 -1,100 Descending Miami Center
Mon 04:17:39 PM 25.5017 -81.1475 270° West 285 328 11,900 -1,150 Descending Miami Center
Mon 04:18:39 PM 25.5014 -81.2281 270° West 285 328 10,800 -1,150 Descending Miami Center
Mon 04:19:39 PM 25.5028 -81.3156 271° West 285 328 9,600 -1,100 Descending Miami Center
Mon 04:20:39 PM 25.5022 -81.4031 270° West 285 328 8,600 -1,000 Descending Miami Center
Mon 04:21:39 PM 25.5550 -81.4511 321° Northwest 257 296 7,600 -1,150 Descending Miami Center
Mon 04:22:39 PM 25.6231 -81.4858 335° Northwest 238 274 6,300 -1,300 Descending Miami Center
Mon 04:23:39 PM 25.6886 -81.5228 333° Northwest 254 292 5,000 -1,100 Descending Miami Center
Mon 04:24:39 PM 25.7625 -81.5628 334° Northwest 265 305 4,100 -600 Descending Miami Center
Mon 04:25:39 PM 25.8242 -81.5950 335° Northwest 257 296 3,800 -500 Descending Miami Center
Mon 04:26:39 PM 25.8856 -81.6297 333° Northwest 251 289 3,100 -350 Descending Miami Center
Mon 04:27:39 PM 25.9492 -81.6647 334° Northwest 251 289 3,100 -150 Level Miami Center
Mon 04:28:39 PM 26.0067 -81.6994 332° Northwest 246 283 2,800 -800 Descending Miami Center
Mon 04:29:39 PM 26.0611 -81.7500 320° Northwest 251 289 1,500 -700 Descending Miami Center
Mon 04:30:39 PM 26.1061 -81.7842 326° Northwest 227 261 1,400 -500 Descending Miami Center
Mon 04:31:39 PM 26.1328 -81.7947 340° North 171 197 500 2,300 Descending Miami Center
Mon 04:32:39 PM 26.1744 -81.8011 352° North 171 197 6,000 2,750 Climbing Miami Center
Mon 04:33:39 PM 26.2092 -81.8208 333° Northwest 171 197 6,000  Level Miami Center
Mon 04:34:39 PM 26.2461 -81.8386 337° Northwest 171 197 6,000  Level Miami Center
Mon 04:35:39 PM 26.2522 -81.8436 324° Northwest 171 197 6,000  Level Miami Center
Mon 04:38:00 PM 26.1773 -81.7872 146° Southeast  Level FlightAware Approximate
Mon 04:45:00 PM 26.1500 -81.7667 149° Southeast  Level FlightAware Approximate
Mon 04:46:00 PM 26.1524 -81.7756 149° Southeast  Level Estimated

Login

Don't have an account? Register now (free) for customized features, flight alerts, and more!